sensor_id;sensor_type;location;lat;lon;timestamp;temperature;humidity
26745;DHT22;14342;50.960;13.880;2023-02-11T00:00:12;3.60;99.90
26745;DHT22;14342;50.960;13.880;2023-02-11T00:01:15;3.40;99.90
26745;DHT22;14342;50.960;13.880;2023-02-11T00:02:18;3.30;99.90
26745;DHT22;14342;50.960;13.880;2023-02-11T00:03:20;3.20;99.90
26745;DHT22;14342;50.960;13.880;2023-02-11T00:04:20;3.20;99.90
26745;DHT22;14342;50.960;13.880;2023-02-11T00:05:22;3.20;99.90
26745;DHT22;14342;50.960;13.880;2023-02-11T00:06:23;3.30;99.90
26745;DHT22;14342;50.960;13.880;2023-02-11T00:07:27;3.30;99.90
26745;DHT22;14342;50.960;13.880;2023-02-11T00:08:27;3.20;99.90
26745;DHT22;14342;50.960;13.880;2023-02-11T00:09:29;3.20;99.90
26745;DHT22;14342;50.960;13.880;2023-02-11T00:10:30;3.20;99.90
26745;DHT22;14342;50.960;13.880;2023-02-11T00:11:31;3.30;99.90
26745;DHT22;14342;50.960;13.880;2023-02-11T00:12:32;3.20;99.90
26745;DHT22;14342;50.960;13.880;2023-02-11T00:13:35;3.20;99.90
26745;DHT22;14342;50.960;13.880;2023-02-11T00:14:35;3.10;99.90
26745;DHT22;14342;50.960;13.880;2023-02-11T00:15:37;3.00;99.90
26745;DHT22;14342;50.960;13.880;2023-02-11T00:16:37;3.00;99.90
26745;DHT22;14342;50.960;13.880;2023-02-11T00:17:39;2.80;99.90
26745;DHT22;14342;50.960;13.880;2023-02-11T00:18:39;3.10;99.90
26745;DHT22;14342;50.960;13.880;2023-02-11T00:19:41;3.10;99.90
26745;DHT22;14342;50.960;13.880;2023-02-11T00:20:42;3.10;99.90
26745;DHT22;14342;50.960;13.880;2023-02-11T00:21:43;3.20;99.90
26745;DHT22;14342;50.960;13.880;2023-02-11T00:22:44;3.30;99.90
26745;DHT22;14342;50.960;13.880;2023-02-11T00:23:46;3.30;99.90
26745;DHT22;14342;50.960;13.880;2023-02-11T00:24:46;3.30;99.90
26745;DHT22;14342;50.960;13.880;2023-02-11T00:25:48;3.30;99.90
26745;DHT22;14342;50.960;13.880;2023-02-11T00:26:48;3.30;99.90
26745;DHT22;14342;50.960;13.880;2023-02-11T00:27:50;3.30;99.90
26745;DHT22;14342;50.960;13.880;2023-02-11T00:28:52;3.30;99.90
26745;DHT22;14342;50.960;13.880;2023-02-11T00:29:54;3.20;99.90
26745;DHT22;14342;50.960;13.880;2023-02-11T00:30:55;3.30;99.90
26745;DHT22;14342;50.960;13.880;2023-02-11T00:31:56;3.40;99.90
26745;DHT22;14342;50.960;13.880;2023-02-11T00:32:57;3.40;99.90
26745;DHT22;14342;50.960;13.880;2023-02-11T00:33:59;3.40;99.90
26745;DHT22;14342;50.960;13.880;2023-02-11T00:34:59;3.50;99.90
26745;DHT22;14342;50.960;13.880;2023-02-11T00:36:02;3.60;99.90
26745;DHT22;14342;50.960;13.880;2023-02-11T00:37:03;3.60;99.90
26745;DHT22;14342;50.960;13.880;2023-02-11T00:38:05;3.60;99.90
26745;DHT22;14342;50.960;13.880;2023-02-11T00:39:06;3.60;99.90
26745;DHT22;14342;50.960;13.880;2023-02-11T00:40:08;3.60;99.90
26745;DHT22;14342;50.960;13.880;2023-02-11T00:41:09;3.80;99.90
26745;DHT22;14342;50.960;13.880;2023-02-11T00:42:11;3.80;99.90
26745;DHT22;14342;50.960;13.880;2023-02-11T00:43:14;3.70;99.90
26745;DHT22;14342;50.960;13.880;2023-02-11T00:44:16;3.70;99.90
26745;DHT22;14342;50.960;13.880;2023-02-11T00:45:17;3.70;99.90
26745;DHT22;14342;50.960;13.880;2023-02-11T00:46:20;3.60;99.90
26745;DHT22;14342;50.960;13.880;2023-02-11T00:47:22;3.70;99.90
26745;DHT22;14342;50.960;13.880;2023-02-11T00:48:22;3.60;99.90
26745;DHT22;14342;50.960;13.880;2023-02-11T00:49:24;3.60;99.90
26745;DHT22;14342;50.960;13.880;2023-02-11T00:50:25;3.60;99.90
26745;DHT22;14342;50.960;13.880;2023-02-11T00:51:27;3.70;99.90
26745;DHT22;14342;50.960;13.880;2023-02-11T00:52:27;3.70;99.90
26745;DHT22;14342;50.960;13.880;2023-02-11T00:53:29;3.70;99.90
26745;DHT22;14342;50.960;13.880;2023-02-11T00:54:29;3.60;99.90
26745;DHT22;14342;50.960;13.880;2023-02-11T00:55:31;3.60;99.90
26745;DHT22;14342;50.960;13.880;2023-02-11T00:56:32;3.60;99.90
26745;DHT22;14342;50.960;13.880;2023-02-11T00:57:33;3.70;99.90
26745;DHT22;14342;50.960;13.880;2023-02-11T00:58:34;3.90;99.90
26745;DHT22;14342;50.960;13.880;2023-02-11T00:59:37;3.90;99.90
26745;DHT22;14342;50.960;13.880;2023-02-11T01:00:37;3.90;99.90
26745;DHT22;14342;50.960;13.880;2023-02-11T01:01:39;3.70;99.90
26745;DHT22;14342;50.960;13.880;2023-02-11T01:02:40;3.60;99.90
26745;DHT22;14342;50.960;13.880;2023-02-11T01:03:41;3.60;99.90
26745;DHT22;14342;50.960;13.880;2023-02-11T01:04:42;3.70;99.90
26745;DHT22;14342;50.960;13.880;2023-02-11T01:05:43;3.80;99.90
26745;DHT22;14342;50.960;13.880;2023-02-11T01:06:44;3.80;99.90
26745;DHT22;14342;50.960;13.880;2023-02-11T01:07:46;3.90;99.90
26745;DHT22;14342;50.960;13.880;2023-02-11T01:08:47;4.00;99.90
26745;DHT22;14342;50.960;13.880;2023-02-11T01:09:48;4.10;99.90
26745;DHT22;14342;50.960;13.880;2023-02-11T01:10:52;4.10;99.90
26745;DHT22;14342;50.960;13.880;2023-02-11T01:11:54;4.20;99.90
26745;DHT22;14342;50.960;13.880;2023-02-11T01:12:54;4.20;99.90
26745;DHT22;14342;50.960;13.880;2023-02-11T01:13:56;4.20;99.90
26745;DHT22;14342;50.960;13.880;2023-02-11T01:14:58;4.10;99.90
26745;DHT22;14342;50.960;13.880;2023-02-11T01:16:00;4.00;99.90
26745;DHT22;14342;50.960;13.880;2023-02-11T01:17:01;4.00;99.90
26745;DHT22;14342;50.960;13.880;2023-02-11T01:18:03;4.00;99.90
26745;DHT22;14342;50.960;13.880;2023-02-11T01:19:04;4.00;99.90
26745;DHT22;14342;50.960;13.880;2023-02-11T01:20:06;3.90;99.90
26745;DHT22;14342;50.960;13.880;2023-02-11T01:21:07;3.80;99.90
26745;DHT22;14342;50.960;13.880;2023-02-11T01:22:09;3.80;99.90
26745;DHT22;14342;50.960;13.880;2023-02-11T01:23:09;3.90;99.90
26745;DHT22;14342;50.960;13.880;2023-02-11T01:24:11;3.90;99.90
26745;DHT22;14342;50.960;13.880;2023-02-11T01:25:12;3.80;99.90
26745;DHT22;14342;50.960;13.880;2023-02-11T01:26:13;3.70;99.90
26745;DHT22;14342;50.960;13.880;2023-02-11T01:27:15;3.80;99.90
26745;DHT22;14342;50.960;13.880;2023-02-11T01:28:15;3.90;99.90
26745;DHT22;14342;50.960;13.880;2023-02-11T01:29:17;4.10;99.90
26745;DHT22;14342;50.960;13.880;2023-02-11T01:30:19;4.20;99.90
26745;DHT22;14342;50.960;13.880;2023-02-11T01:31:21;4.40;99.90
26745;DHT22;14342;50.960;13.880;2023-02-11T01:32:21;4.70;99.90
26745;DHT22;14342;50.960;13.880;2023-02-11T01:33:23;4.80;99.90
26745;DHT22;14342;50.960;13.880;2023-02-11T01:34:23;4.80;99.90
26745;DHT22;14342;50.960;13.880;2023-02-11T01:35:25;4.70;99.90
26745;DHT22;14342;50.960;13.880;2023-02-11T01:36:26;4.70;99.90
26745;DHT22;14342;50.960;13.880;2023-02-11T01:37:27;4.70;99.90
26745;DHT22;14342;50.960;13.880;2023-02-11T01:38:28;4.70;99.90
26745;DHT22;14342;50.960;13.880;2023-02-11T01:39:31;4.80;99.90
26745;DHT22;14342;50.960;13.880;2023-02-11T01:40:32;4.90;99.90
26745;DHT22;14342;50.960;13.880;2023-02-11T01:41:33;4.90;99.90
26745;DHT22;14342;50.960;13.880;2023-02-11T01:42:34;4.90;99.90
26745;DHT22;14342;50.960;13.880;2023-02-11T01:43:36;4.90;99.90
26745;DHT22;14342;50.960;13.880;2023-02-11T01:44:37;5.00;99.90
26745;DHT22;14342;50.960;13.880;2023-02-11T01:45:53;5.10;99.90
26745;DHT22;14342;50.960;13.880;2023-02-11T01:46:55;4.90;99.90
26745;DHT22;14342;50.960;13.880;2023-02-11T01:47:56;4.90;99.90
26745;DHT22;14342;50.960;13.880;2023-02-11T01:48:58;5.00;99.90
26745;DHT22;14342;50.960;13.880;2023-02-11T01:50:01;5.00;99.90
26745;DHT22;14342;50.960;13.880;2023-02-11T01:51:03;5.00;99.90
26745;DHT22;14342;50.960;13.880;2023-02-11T01:52:07;5.20;99.90
26745;DHT22;14342;50.960;13.880;2023-02-11T01:53:09;5.00;99.90
26745;DHT22;14342;50.960;13.880;2023-02-11T01:54:26;5.00;99.90
26745;DHT22;14342;50.960;13.880;2023-02-11T01:55:46;5.30;99.90
26745;DHT22;14342;50.960;13.880;2023-02-11T01:57:05;5.50;99.90
26745;DHT22;14342;50.960;13.880;2023-02-11T01:58:22;5.40;99.90
26745;DHT22;14342;50.960;13.880;2023-02-11T01:59:25;5.30;99.90
26745;DHT22;14342;50.960;13.880;2023-02-11T02:00:29;5.30;99.90
26745;DHT22;14342;50.960;13.880;2023-02-11T02:01:34;5.10;99.90
26745;DHT22;14342;50.960;13.880;2023-02-11T02:02:38;5.20;99.90
26745;DHT22;14342;50.960;13.880;2023-02-11T02:03:41;5.30;99.90
26745;DHT22;14342;50.960;13.880;2023-02-11T02:04:44;5.40;99.90
26745;DHT22;14342;50.960;13.880;2023-02-11T02:05:47;5.50;99.90
26745;DHT22;14342;50.960;13.880;2023-02-11T02:06:51;5.60;99.90
26745;DHT22;14342;50.960;13.880;2023-02-11T02:07:55;5.80;99.90
26745;DHT22;14342;50.960;13.880;2023-02-11T02:08:59;5.60;99.90
26745;DHT22;14342;50.960;13.880;2023-02-11T02:10:02;5.60;99.90
26745;DHT22;14342;50.960;13.880;2023-02-11T02:11:04;5.60;99.90
26745;DHT22;14342;50.960;13.880;2023-02-11T02:12:05;5.40;99.90
26745;DHT22;14342;50.960;13.880;2023-02-11T02:13:06;5.40;99.90
26745;DHT22;14342;50.960;13.880;2023-02-11T02:14:08;5.60;99.90
26745;DHT22;14342;50.960;13.880;2023-02-11T02:15:22;5.70;99.90
26745;DHT22;14342;50.960;13.880;2023-02-11T02:16:25;5.80;99.90
26745;DHT22;14342;50.960;13.880;2023-02-11T02:17:32;5.60;99.90
26745;DHT22;14342;50.960;13.880;2023-02-11T02:18:38;5.80;99.90
26745;DHT22;14342;50.960;13.880;2023-02-11T02:22:27;6.20;99.90
26745;DHT22;14342;50.960;13.880;2023-02-11T02:24:54;6.60;99.90
26745;DHT22;14342;50.960;13.880;2023-02-11T02:26:12;6.70;99.90
26745;DHT22;14342;50.960;13.880;2023-02-11T02:28:38;6.80;99.90
26745;DHT22;14342;50.960;13.880;2023-02-11T02:29:57;6.70;99.90
26745;DHT22;14342;50.960;13.880;2023-02-11T02:31:14;6.60;99.90
26745;DHT22;14342;50.960;13.880;2023-02-11T02:32:22;6.30;99.90
26745;DHT22;14342;50.960;13.880;2023-02-11T02:33:35;6.10;99.90
26745;DHT22;14342;50.960;13.880;2023-02-11T02:34:40;5.80;99.90
26745;DHT22;14342;50.960;13.880;2023-02-11T02:35:45;5.70;99.90
26745;DHT22;14342;50.960;13.880;2023-02-11T02:36:50;5.70;99.90
26745;DHT22;14342;50.960;13.880;2023-02-11T02:37:56;5.30;99.90
26745;DHT22;14342;50.960;13.880;2023-02-11T02:39:01;5.40;99.90
26745;DHT22;14342;50.960;13.880;2023-02-11T02:40:03;5.50;99.90
26745;DHT22;14342;50.960;13.880;2023-02-11T02:41:07;5.60;99.90
26745;DHT22;14342;50.960;13.880;2023-02-11T02:42:08;5.60;99.90
26745;DHT22;14342;50.960;13.880;2023-02-11T02:43:10;5.60;99.90
26745;DHT22;14342;50.960;13.880;2023-02-11T02:44:11;5.80;99.90
26745;DHT22;14342;50.960;13.880;2023-02-11T02:45:12;5.80;99.90
26745;DHT22;14342;50.960;13.880;2023-02-11T02:46:14;5.30;99.90
26745;DHT22;14342;50.960;13.880;2023-02-11T02:47:16;5.40;99.90
26745;DHT22;14342;50.960;13.880;2023-02-11T02:48:25;5.60;99.90
26745;DHT22;14342;50.960;13.880;2023-02-11T02:49:27;5.80;99.90
26745;DHT22;14342;50.960;13.880;2023-02-11T02:50:29;5.80;99.90
26745;DHT22;14342;50.960;13.880;2023-02-11T02:52:54;5.70;99.90
26745;DHT22;14342;50.960;13.880;2023-02-11T02:54:02;5.90;99.90
26745;DHT22;14342;50.960;13.880;2023-02-11T02:56:29;5.60;99.90
26745;DHT22;14342;50.960;13.880;2023-02-11T02:57:34;5.40;99.90
26745;DHT22;14342;50.960;13.880;2023-02-11T02:58:43;5.50;99.90
26745;DHT22;14342;50.960;13.880;2023-02-11T02:59:51;5.50;99.90
26745;DHT22;14342;50.960;13.880;2023-02-11T03:04:41;5.40;99.90
26745;DHT22;14342;50.960;13.880;2023-02-11T03:05:47;5.70;99.90
26745;DHT22;14342;50.960;13.880;2023-02-11T03:06:51;5.60;99.90
26745;DHT22;14342;50.960;13.880;2023-02-11T03:07:54;5.60;99.90
26745;DHT22;14342;50.960;13.880;2023-02-11T03:08:58;5.60;99.90
26745;DHT22;14342;50.960;13.880;2023-02-11T03:10:01;5.60;99.90
26745;DHT22;14342;50.960;13.880;2023-02-11T03:11:06;5.60;99.90
26745;DHT22;14342;50.960;13.880;2023-02-11T03:12:08;5.60;99.90
26745;DHT22;14342;50.960;13.880;2023-02-11T03:13:11;5.60;99.90
26745;DHT22;14342;50.960;13.880;2023-02-11T03:14:14;5.70;99.90
26745;DHT22;14342;50.960;13.880;2023-02-11T03:15:17;5.80;99.90
26745;DHT22;14342;50.960;13.880;2023-02-11T03:16:18;5.80;99.90
26745;DHT22;14342;50.960;13.880;2023-02-11T03:17:20;5.60;99.90
26745;DHT22;14342;50.960;13.880;2023-02-11T03:18:23;5.50;99.90
26745;DHT22;14342;50.960;13.880;2023-02-11T03:19:28;5.40;99.90
26745;DHT22;14342;50.960;13.880;2023-02-11T03:20:31;5.40;99.90
26745;DHT22;14342;50.960;13.880;2023-02-11T03:21:33;5.40;99.90
26745;DHT22;14342;50.960;13.880;2023-02-11T03:22:36;5.60;99.90
26745;DHT22;14342;50.960;13.880;2023-02-11T03:23:41;5.60;99.90
26745;DHT22;14342;50.960;13.880;2023-02-11T03:24:43;5.50;99.90
26745;DHT22;14342;50.960;13.880;2023-02-11T03:25:47;5.40;99.90
26745;DHT22;14342;50.960;13.880;2023-02-11T03:26:50;5.50;99.90
26745;DHT22;14342;50.960;13.880;2023-02-11T03:27:55;5.60;99.90
26745;DHT22;14342;50.960;13.880;2023-02-11T03:28:59;5.70;99.90
26745;DHT22;14342;50.960;13.880;2023-02-11T03:30:04;5.70;99.90
26745;DHT22;14342;50.960;13.880;2023-02-11T03:31:08;5.80;99.90
26745;DHT22;14342;50.960;13.880;2023-02-11T03:32:11;5.80;99.90
26745;DHT22;14342;50.960;13.880;2023-02-11T03:33:17;5.80;99.90
26745;DHT22;14342;50.960;13.880;2023-02-11T03:34:21;5.70;99.90
26745;DHT22;14342;50.960;13.880;2023-02-11T03:35:23;5.70;99.90
26745;DHT22;14342;50.960;13.880;2023-02-11T03:36:31;5.60;99.90
26745;DHT22;14342;50.960;13.880;2023-02-11T03:37:34;5.40;99.90
26745;DHT22;14342;50.960;13.880;2023-02-11T03:38:41;5.20;99.90
26745;DHT22;14342;50.960;13.880;2023-02-11T03:39:44;5.20;99.90
26745;DHT22;14342;50.960;13.880;2023-02-11T03:40:47;5.20;99.90
26745;DHT22;14342;50.960;13.880;2023-02-11T03:41:48;5.20;99.90
26745;DHT22;14342;50.960;13.880;2023-02-11T03:42:51;5.30;99.90
26745;DHT22;14342;50.960;13.880;2023-02-11T03:43:54;5.40;99.90
26745;DHT22;14342;50.960;13.880;2023-02-11T03:44:58;5.50;99.90
26745;DHT22;14342;50.960;13.880;2023-02-11T03:46:01;5.70;99.90
26745;DHT22;14342;50.960;13.880;2023-02-11T03:47:02;5.60;99.90
26745;DHT22;14342;50.960;13.880;2023-02-11T03:48:07;5.60;99.90
26745;DHT22;14342;50.960;13.880;2023-02-11T03:49:11;5.50;99.90
26745;DHT22;14342;50.960;13.880;2023-02-11T03:50:13;5.40;99.90
26745;DHT22;14342;50.960;13.880;2023-02-11T03:51:15;5.40;99.90
26745;DHT22;14342;50.960;13.880;2023-02-11T03:52:18;5.50;99.90
26745;DHT22;14342;50.960;13.880;2023-02-11T03:53:20;5.60;99.90
26745;DHT22;14342;50.960;13.880;2023-02-11T03:54:23;5.60;99.90
26745;DHT22;14342;50.960;13.880;2023-02-11T03:55:24;5.60;99.90
26745;DHT22;14342;50.960;13.880;2023-02-11T03:56:28;5.50;99.90
26745;DHT22;14342;50.960;13.880;2023-02-11T03:57:29;5.50;99.90
26745;DHT22;14342;50.960;13.880;2023-02-11T03:58:33;5.50;99.90
26745;DHT22;14342;50.960;13.880;2023-02-11T03:59:48;5.40;99.90
26745;DHT22;14342;50.960;13.880;2023-02-11T04:00:49;5.30;99.90
26745;DHT22;14342;50.960;13.880;2023-02-11T04:01:51;5.30;99.90
26745;DHT22;14342;50.960;13.880;2023-02-11T04:02:52;5.30;99.90
26745;DHT22;14342;50.960;13.880;2023-02-11T04:03:53;5.30;99.90
26745;DHT22;14342;50.960;13.880;2023-02-11T04:04:54;5.10;99.90
26745;DHT22;14342;50.960;13.880;2023-02-11T04:05:55;5.00;99.90
26745;DHT22;14342;50.960;13.880;2023-02-11T04:06:56;4.90;99.90
26745;DHT22;14342;50.960;13.880;2023-02-11T04:07:59;5.10;99.90
26745;DHT22;14342;50.960;13.880;2023-02-11T04:09:00;5.00;99.90
26745;DHT22;14342;50.960;13.880;2023-02-11T04:10:01;5.00;99.90
26745;DHT22;14342;50.960;13.880;2023-02-11T04:11:02;5.00;99.90
26745;DHT22;14342;50.960;13.880;2023-02-11T04:12:04;5.00;99.90
26745;DHT22;14342;50.960;13.880;2023-02-11T04:13:04;4.90;99.90
26745;DHT22;14342;50.960;13.880;2023-02-11T04:14:07;5.00;99.90
26745;DHT22;14342;50.960;13.880;2023-02-11T04:15:07;4.90;99.90
26745;DHT22;14342;50.960;13.880;2023-02-11T04:16:09;5.00;99.90
26745;DHT22;14342;50.960;13.880;2023-02-11T04:17:10;5.10;99.90
26745;DHT22;14342;50.960;13.880;2023-02-11T04:18:11;5.10;99.90
26745;DHT22;14342;50.960;13.880;2023-02-11T04:19:12;5.20;99.90
26745;DHT22;14342;50.960;13.880;2023-02-11T04:20:13;5.20;99.90
26745;DHT22;14342;50.960;13.880;2023-02-11T04:21:14;5.30;99.90
26745;DHT22;14342;50.960;13.880;2023-02-11T04:22:15;5.40;99.90
26745;DHT22;14342;50.960;13.880;2023-02-11T04:23:17;5.40;99.90
26745;DHT22;14342;50.960;13.880;2023-02-11T04:24:19;5.40;99.90
26745;DHT22;14342;50.960;13.880;2023-02-11T04:25:19;5.50;99.90
26745;DHT22;14342;50.960;13.880;2023-02-11T04:26:21;5.60;99.90
26745;DHT22;14342;50.960;13.880;2023-02-11T04:27:21;5.60;99.90
26745;DHT22;14342;50.960;13.880;2023-02-11T04:28:23;5.40;99.90
26745;DHT22;14342;50.960;13.880;2023-02-11T04:29:24;5.30;99.90
26745;DHT22;14342;50.960;13.880;2023-02-11T04:30:26;5.30;99.90
26745;DHT22;14342;50.960;13.880;2023-02-11T04:31:26;5.40;99.90
26745;DHT22;14342;50.960;13.880;2023-02-11T04:32:28;5.40;99.90
26745;DHT22;14342;50.960;13.880;2023-02-11T04:33:28;5.30;99.90
26745;DHT22;14342;50.960;13.880;2023-02-11T04:34:30;5.40;99.90
26745;DHT22;14342;50.960;13.880;2023-02-11T04:35:31;5.50;99.90
26745;DHT22;14342;50.960;13.880;2023-02-11T04:36:32;5.50;99.90
26745;DHT22;14342;50.960;13.880;2023-02-11T04:37:34;5.40;99.90
26745;DHT22;14342;50.960;13.880;2023-02-11T04:38:36;5.50;99.90
26745;DHT22;14342;50.960;13.880;2023-02-11T04:39:37;5.40;99.90
26745;DHT22;14342;50.960;13.880;2023-02-11T04:40:38;5.30;99.90
26745;DHT22;14342;50.960;13.880;2023-02-11T04:41:40;5.20;99.90
26745;DHT22;14342;50.960;13.880;2023-02-11T04:42:40;5.20;99.90
26745;DHT22;14342;50.960;13.880;2023-02-11T04:43:42;5.10;99.90
26745;DHT22;14342;50.960;13.880;2023-02-11T04:44:43;5.20;99.90
26745;DHT22;14342;50.960;13.880;2023-02-11T04:45:44;5.30;99.90
26745;DHT22;14342;50.960;13.880;2023-02-11T04:46:45;5.50;99.90
26745;DHT22;14342;50.960;13.880;2023-02-11T04:47:46;5.60;99.90
26745;DHT22;14342;50.960;13.880;2023-02-11T04:48:47;5.60;99.90
26745;DHT22;14342;50.960;13.880;2023-02-11T04:49:48;5.60;99.90
26745;DHT22;14342;50.960;13.880;2023-02-11T04:50:49;5.50;99.90
26745;DHT22;14342;50.960;13.880;2023-02-11T04:51:51;5.40;99.90
26745;DHT22;14342;50.960;13.880;2023-02-11T04:52:51;5.40;99.90
26745;DHT22;14342;50.960;13.880;2023-02-11T04:53:54;5.40;99.90
26745;DHT22;14342;50.960;13.880;2023-02-11T04:54:55;5.50;99.90
26745;DHT22;14342;50.960;13.880;2023-02-11T04:55:56;5.60;99.90
26745;DHT22;14342;50.960;13.880;2023-02-11T04:56:57;5.60;99.90
26745;DHT22;14342;50.960;13.880;2023-02-11T04:57:58;5.50;99.90
26745;DHT22;14342;50.960;13.880;2023-02-11T04:58:59;5.40;99.90
26745;DHT22;14342;50.960;13.880;2023-02-11T05:00:00;5.40;99.90
26745;DHT22;14342;50.960;13.880;2023-02-11T05:01:04;5.30;99.90
26745;DHT22;14342;50.960;13.880;2023-02-11T05:02:05;5.30;99.90
26745;DHT22;14342;50.960;13.880;2023-02-11T05:03:06;5.20;99.90
26745;DHT22;14342;50.960;13.880;2023-02-11T05:04:07;5.20;99.90
26745;DHT22;14342;50.960;13.880;2023-02-11T05:05:08;5.30;99.90
26745;DHT22;14342;50.960;13.880;2023-02-11T05:06:10;5.20;99.90
26745;DHT22;14342;50.960;13.880;2023-02-11T05:07:10;5.10;99.90
26745;DHT22;14342;50.960;13.880;2023-02-11T05:08:12;5.00;99.90
26745;DHT22;14342;50.960;13.880;2023-02-11T05:09:14;5.10;99.90
26745;DHT22;14342;50.960;13.880;2023-02-11T05:10:16;5.00;99.90
26745;DHT22;14342;50.960;13.880;2023-02-11T05:11:17;5.10;99.90
26745;DHT22;14342;50.960;13.880;2023-02-11T05:12:19;5.10;99.90
26745;DHT22;14342;50.960;13.880;2023-02-11T05:13:19;5.00;99.90
26745;DHT22;14342;50.960;13.880;2023-02-11T05:14:21;5.10;99.90
26745;DHT22;14342;50.960;13.880;2023-02-11T05:15:22;5.10;99.90
26745;DHT22;14342;50.960;13.880;2023-02-11T05:16:23;5.20;99.90
26745;DHT22;14342;50.960;13.880;2023-02-11T05:17:24;5.20;99.90
26745;DHT22;14342;50.960;13.880;2023-02-11T05:18:25;5.20;99.90
26745;DHT22;14342;50.960;13.880;2023-02-11T05:19:26;5.20;99.90
26745;DHT22;14342;50.960;13.880;2023-02-11T05:20:27;5.20;99.90
26745;DHT22;14342;50.960;13.880;2023-02-11T05:21:28;5.20;99.90
26745;DHT22;14342;50.960;13.880;2023-02-11T05:22:29;5.20;99.90
26745;DHT22;14342;50.960;13.880;2023-02-11T05:23:30;5.20;99.90
26745;DHT22;14342;50.960;13.880;2023-02-11T05:24:33;5.20;99.90
26745;DHT22;14342;50.960;13.880;2023-02-11T05:25:34;5.20;99.90
26745;DHT22;14342;50.960;13.880;2023-02-11T05:26:35;5.40;99.90
26745;DHT22;14342;50.960;13.880;2023-02-11T05:27:36;5.50;99.90
26745;DHT22;14342;50.960;13.880;2023-02-11T05:28:38;5.30;99.90
26745;DHT22;14342;50.960;13.880;2023-02-11T05:29:38;5.30;99.90
26745;DHT22;14342;50.960;13.880;2023-02-11T05:30:40;5.20;99.90
26745;DHT22;14342;50.960;13.880;2023-02-11T05:31:40;5.20;99.90
26745;DHT22;14342;50.960;13.880;2023-02-11T05:32:42;4.90;99.90
26745;DHT22;14342;50.960;13.880;2023-02-11T05:33:42;4.80;99.90
26745;DHT22;14342;50.960;13.880;2023-02-11T05:34:44;4.70;99.90
26745;DHT22;14342;50.960;13.880;2023-02-11T05:35:45;4.80;99.90
26745;DHT22;14342;50.960;13.880;2023-02-11T05:36:46;4.90;99.90
26745;DHT22;14342;50.960;13.880;2023-02-11T05:37:47;5.00;99.90
26745;DHT22;14342;50.960;13.880;2023-02-11T05:38:49;4.90;99.90
26745;DHT22;14342;50.960;13.880;2023-02-11T05:39:51;4.80;99.90
26745;DHT22;14342;50.960;13.880;2023-02-11T05:40:53;4.80;99.90
26745;DHT22;14342;50.960;13.880;2023-02-11T05:41:53;4.50;99.90
26745;DHT22;14342;50.960;13.880;2023-02-11T05:42:55;4.50;99.90
26745;DHT22;14342;50.960;13.880;2023-02-11T05:43:56;4.50;99.90
26745;DHT22;14342;50.960;13.880;2023-02-11T05:44:58;4.40;99.90
26745;DHT22;14342;50.960;13.880;2023-02-11T05:45:58;4.50;99.90
26745;DHT22;14342;50.960;13.880;2023-02-11T05:47:00;4.50;99.90
26745;DHT22;14342;50.960;13.880;2023-02-11T05:48:00;4.50;99.90
26745;DHT22;14342;50.960;13.880;2023-02-11T05:49:02;4.50;99.90
26745;DHT22;14342;50.960;13.880;2023-02-11T05:50:03;4.50;99.90
26745;DHT22;14342;50.960;13.880;2023-02-11T05:51:04;4.50;99.90
26745;DHT22;14342;50.960;13.880;2023-02-11T05:52:05;4.50;99.90
26745;DHT22;14342;50.960;13.880;2023-02-11T05:53:06;4.60;99.90
26745;DHT22;14342;50.960;13.880;2023-02-11T05:54:07;4.60;99.90
26745;DHT22;14342;50.960;13.880;2023-02-11T05:55:11;4.60;99.90
26745;DHT22;14342;50.960;13.880;2023-02-11T05:56:11;4.60;99.90
26745;DHT22;14342;50.960;13.880;2023-02-11T05:57:14;4.50;99.90
26745;DHT22;14342;50.960;13.880;2023-02-11T05:58:15;4.50;99.90
26745;DHT22;14342;50.960;13.880;2023-02-11T05:59:16;4.50;99.90
26745;DHT22;14342;50.960;13.880;2023-02-11T06:00:17;4.40;99.90
26745;DHT22;14342;50.960;13.880;2023-02-11T06:01:19;4.50;99.90
26745;DHT22;14342;50.960;13.880;2023-02-11T06:02:19;4.40;99.90
26745;DHT22;14342;50.960;13.880;2023-02-11T06:03:21;4.50;99.90
26745;DHT22;14342;50.960;13.880;2023-02-11T06:04:21;4.50;99.90
26745;DHT22;14342;50.960;13.880;2023-02-11T06:05:23;4.60;99.90
26745;DHT22;14342;50.960;13.880;2023-02-11T06:06:24;4.70;99.90
26745;DHT22;14342;50.960;13.880;2023-02-11T06:07:25;4.60;99.90
26745;DHT22;14342;50.960;13.880;2023-02-11T06:08:26;4.60;99.90
26745;DHT22;14342;50.960;13.880;2023-02-11T06:09:27;4.60;99.90
26745;DHT22;14342;50.960;13.880;2023-02-11T06:10:29;4.50;99.90
26745;DHT22;14342;50.960;13.880;2023-02-11T06:11:31;4.50;99.90
26745;DHT22;14342;50.960;13.880;2023-02-11T06:12:32;4.40;99.90
26745;DHT22;14342;50.960;13.880;2023-02-11T06:13:33;4.50;99.90
26745;DHT22;14342;50.960;13.880;2023-02-11T06:14:34;4.40;99.90
26745;DHT22;14342;50.960;13.880;2023-02-11T06:15:35;4.60;99.90
26745;DHT22;14342;50.960;13.880;2023-02-11T06:16:36;4.60;99.90
26745;DHT22;14342;50.960;13.880;2023-02-11T06:17:38;4.70;99.90
26745;DHT22;14342;50.960;13.880;2023-02-11T06:18:38;4.70;99.90
26745;DHT22;14342;50.960;13.880;2023-02-11T06:19:40;4.70;99.90
26745;DHT22;14342;50.960;13.880;2023-02-11T06:20:40;4.80;99.90
26745;DHT22;14342;50.960;13.880;2023-02-11T06:21:42;4.70;99.90
26745;DHT22;14342;50.960;13.880;2023-02-11T06:22:43;4.60;99.90
26745;DHT22;14342;50.960;13.880;2023-02-11T06:23:44;4.70;99.90
26745;DHT22;14342;50.960;13.880;2023-02-11T06:24:45;4.60;99.90
26745;DHT22;14342;50.960;13.880;2023-02-11T06:25:48;4.70;99.90
26745;DHT22;14342;50.960;13.880;2023-02-11T06:26:48;4.70;99.90
26745;DHT22;14342;50.960;13.880;2023-02-11T06:27:50;4.70;99.90
26745;DHT22;14342;50.960;13.880;2023-02-11T06:28:50;4.80;99.90
26745;DHT22;14342;50.960;13.880;2023-02-11T06:29:52;5.00;99.90
26745;DHT22;14342;50.960;13.880;2023-02-11T06:30:52;5.00;99.90
26745;DHT22;14342;50.960;13.880;2023-02-11T06:31:54;5.00;99.90
26745;DHT22;14342;50.960;13.880;2023-02-11T06:32:55;5.00;99.90
26745;DHT22;14342;50.960;13.880;2023-02-11T06:33:56;4.80;99.90
26745;DHT22;14342;50.960;13.880;2023-02-11T06:34:58;4.70;99.90
26745;DHT22;14342;50.960;13.880;2023-02-11T06:36:00;4.70;99.90
26745;DHT22;14342;50.960;13.880;2023-02-11T06:37:01;4.70;99.90
26745;DHT22;14342;50.960;13.880;2023-02-11T06:38:03;4.70;99.90
26745;DHT22;14342;50.960;13.880;2023-02-11T06:39:03;4.70;99.90
26745;DHT22;14342;50.960;13.880;2023-02-11T06:40:05;4.60;99.90
26745;DHT22;14342;50.960;13.880;2023-02-11T06:41:09;4.70;99.90
26745;DHT22;14342;50.960;13.880;2023-02-11T06:42:12;4.80;99.90
26745;DHT22;14342;50.960;13.880;2023-02-11T06:43:12;4.90;99.90
26745;DHT22;14342;50.960;13.880;2023-02-11T06:44:14;5.00;99.90
26745;DHT22;14342;50.960;13.880;2023-02-11T06:45:15;4.90;99.90